createdAt,value
2023-04-28T00:00:30.776Z,2.83
2023-04-28T00:02:03.048Z,3.20
2023-04-28T00:03:35.410Z,3.20
2023-04-28T00:05:07.931Z,2.65
2023-04-28T00:06:41.410Z,3.30
2023-04-28T00:08:13.449Z,3.00
2023-04-28T00:09:45.439Z,3.00
2023-04-28T00:11:17.460Z,3.00
2023-04-28T00:12:49.550Z,3.10
2023-04-28T00:14:21.717Z,3.10
2023-04-28T00:15:54.366Z,2.72
2023-04-28T00:17:26.612Z,2.70
2023-04-28T00:18:58.891Z,2.85
2023-04-28T00:20:31.009Z,3.22
2023-04-28T00:22:03.013Z,3.33
2023-04-28T00:23:35.740Z,2.80
2023-04-28T00:25:09.404Z,3.20
2023-04-28T00:26:41.642Z,2.80
2023-04-28T00:28:18.389Z,2.55
2023-04-28T00:29:59.133Z,2.90
2023-04-28T00:33:04.047Z,2.95
2023-04-28T00:34:39.212Z,3.05
2023-04-28T00:36:12.048Z,3.35
2023-04-28T00:37:44.188Z,2.90
2023-04-28T00:39:17.119Z,3.03
2023-04-28T00:40:49.169Z,2.63
2023-04-28T00:42:21.186Z,3.10
2023-04-28T00:43:53.343Z,3.30
2023-04-28T00:45:25.506Z,2.90
2023-04-28T00:46:59.661Z,2.92
2023-04-28T00:48:31.928Z,3.10
2023-04-28T00:50:07.346Z,2.60
2023-04-28T00:51:39.428Z,3.28
2023-04-28T00:53:12.518Z,4.38
2023-04-28T00:54:44.814Z,4.10
2023-04-28T00:56:17.464Z,4.15
2023-04-28T00:57:49.542Z,4.32
2023-04-28T00:59:21.593Z,4.28
2023-04-28T01:00:53.649Z,4.05
2023-04-28T01:02:26.345Z,3.85
2023-04-28T01:03:58.765Z,3.97
2023-04-28T01:05:31.394Z,3.00
2023-04-28T01:07:04.429Z,4.05
2023-04-28T01:08:37.455Z,3.17
2023-04-28T01:10:10.187Z,3.28
2023-04-28T01:11:42.465Z,3.03
2023-04-28T01:13:14.479Z,3.35
2023-04-28T01:14:47.021Z,2.90
2023-04-28T01:16:19.214Z,2.97
2023-04-28T01:17:51.941Z,3.30
2023-04-28T01:19:24.139Z,2.85
2023-04-28T01:20:56.645Z,3.00
2023-04-28T01:22:28.740Z,2.90
2023-04-28T01:24:01.924Z,3.85
2023-04-28T01:25:33.999Z,3.25
2023-04-28T01:27:06.505Z,2.95
2023-04-28T01:28:38.571Z,3.33
2023-04-28T01:30:12.976Z,3.05
2023-04-28T01:31:45.104Z,2.92
2023-04-28T01:33:17.262Z,3.20
2023-04-28T01:34:49.464Z,3.10
2023-04-28T01:36:23.024Z,3.05
2023-04-28T01:37:55.084Z,3.40
2023-04-28T01:39:27.150Z,3.75
2023-04-28T01:41:00.049Z,2.85
2023-04-28T01:42:32.185Z,3.00
2023-04-28T01:44:05.410Z,3.08
2023-04-28T01:45:37.381Z,2.95
2023-04-28T01:47:09.799Z,3.10
2023-04-28T01:48:41.858Z,3.13
2023-04-28T01:50:14.086Z,3.20
2023-04-28T01:51:46.187Z,3.10
2023-04-28T01:53:21.030Z,3.28
2023-04-28T01:54:53.143Z,2.97
2023-04-28T01:56:25.269Z,3.13
2023-04-28T01:57:58.810Z,3.00
2023-04-28T01:59:31.422Z,3.30
2023-04-28T02:01:03.595Z,3.10
2023-04-28T02:02:35.965Z,3.30
2023-04-28T02:04:08.093Z,3.13
2023-04-28T02:05:40.192Z,3.05
2023-04-28T02:07:12.318Z,3.03
2023-04-28T02:08:44.348Z,2.90
2023-04-28T02:10:16.527Z,3.28
2023-04-28T02:11:48.986Z,3.25
2023-04-28T02:13:21.045Z,3.17
2023-04-28T02:14:53.097Z,3.17
2023-04-28T02:16:25.316Z,3.20
2023-04-28T02:17:57.662Z,3.10
2023-04-28T02:19:32.868Z,3.40
2023-04-28T02:21:12.093Z,3.53
2023-04-28T02:22:44.106Z,2.97
2023-04-28T02:24:16.643Z,3.08
2023-04-28T02:25:48.928Z,3.30
2023-04-28T02:27:21.837Z,3.10
2023-04-28T02:28:54.040Z,3.20
2023-04-28T02:30:26.122Z,3.22
2023-04-28T02:31:58.189Z,3.38
2023-04-28T02:33:30.266Z,3.55
2023-04-28T02:35:02.506Z,3.55
2023-04-28T02:36:34.562Z,3.28
2023-04-28T02:38:06.658Z,3.45
2023-04-28T02:39:38.650Z,3.08
2023-04-28T02:41:11.079Z,4.03
2023-04-28T02:42:43.549Z,3.05
2023-04-28T02:44:15.879Z,3.20
2023-04-28T02:45:48.065Z,3.20
2023-04-28T02:47:20.118Z,3.72
2023-04-28T02:48:52.254Z,3.80
2023-04-28T02:50:24.420Z,3.22
2023-04-28T02:51:56.661Z,3.17
2023-04-28T02:53:29.087Z,3.30
2023-04-28T02:55:01.229Z,3.00
2023-04-28T02:56:34.029Z,3.22
2023-04-28T02:58:06.472Z,3.17
2023-04-28T02:59:38.584Z,3.17
2023-04-28T03:01:10.735Z,3.42
2023-04-28T03:02:42.908Z,3.10
2023-04-28T03:04:16.180Z,3.10
2023-04-28T03:07:20.568Z,3.25
2023-04-28T03:08:52.650Z,3.20
2023-04-28T03:10:24.891Z,3.53
2023-04-28T03:11:57.017Z,3.10
2023-04-28T03:13:30.471Z,2.92
2023-04-28T03:16:34.787Z,3.00
2023-04-28T03:18:07.006Z,3.53
2023-04-28T03:19:39.229Z,2.65
2023-04-28T03:21:11.489Z,3.15
2023-04-28T03:22:43.556Z,4.18
2023-04-28T03:24:15.906Z,3.22
2023-04-28T03:25:48.196Z,3.20
2023-04-28T03:27:20.417Z,3.65
2023-04-28T03:28:52.650Z,3.70
2023-04-28T03:30:24.811Z,3.08
2023-04-28T03:31:57.479Z,3.03
2023-04-28T03:33:29.951Z,3.35
2023-04-28T03:35:02.363Z,3.10
2023-04-28T03:36:34.431Z,3.55
2023-04-28T03:38:07.370Z,3.55
2023-04-28T03:39:39.511Z,3.17
2023-04-28T03:41:11.807Z,3.13
2023-04-28T03:42:43.992Z,3.53
2023-04-28T03:44:16.228Z,3.13
2023-04-28T03:45:49.895Z,3.67
2023-04-28T03:47:22.281Z,3.70
2023-04-28T03:48:54.496Z,3.88
2023-04-28T03:50:26.840Z,3.58
2023-04-28T03:51:59.000Z,3.75
2023-04-28T03:53:31.065Z,4.07
2023-04-28T03:55:03.194Z,3.88
2023-04-28T03:56:35.384Z,3.83
2023-04-28T03:58:07.500Z,3.70
2023-04-28T03:59:40.139Z,3.85
2023-04-28T04:01:12.633Z,3.70
2023-04-28T04:02:45.005Z,4.35
2023-04-28T04:04:17.970Z,3.45
2023-04-28T04:05:50.637Z,3.42
2023-04-28T04:07:23.559Z,3.20
2023-04-28T04:08:55.970Z,2.90
2023-04-28T04:10:28.270Z,3.40
2023-04-28T04:12:01.626Z,3.53
2023-04-28T04:13:33.770Z,2.78
2023-04-28T04:15:06.705Z,3.63
2023-04-28T04:16:39.560Z,3.70
2023-04-28T04:18:11.761Z,3.08
2023-04-28T04:19:43.817Z,3.30
2023-04-28T04:21:16.038Z,3.60
2023-04-28T04:22:48.355Z,3.72
2023-04-28T04:24:20.441Z,3.55
2023-04-28T04:25:52.566Z,3.50
2023-04-28T04:27:24.822Z,3.72
2023-04-28T04:28:57.199Z,3.85
2023-04-28T04:30:29.358Z,3.83
2023-04-28T04:32:01.411Z,3.78
2023-04-28T04:33:35.036Z,3.97
2023-04-28T04:35:07.492Z,4.47
2023-04-28T04:36:39.629Z,4.00
2023-04-28T04:38:11.813Z,4.32
2023-04-28T04:39:43.962Z,4.25
2023-04-28T04:41:16.252Z,4.32
2023-04-28T04:42:48.368Z,4.10
2023-04-28T04:44:20.495Z,4.43
2023-04-28T04:45:52.579Z,4.47
2023-04-28T04:47:24.954Z,4.20
2023-04-28T04:48:57.334Z,4.45
2023-04-28T04:50:29.390Z,4.47
2023-04-28T04:52:02.176Z,4.40
2023-04-28T04:53:34.398Z,4.15
2023-04-28T04:55:07.284Z,4.60
2023-04-28T04:56:39.495Z,4.18
2023-04-28T04:58:11.997Z,4.35
2023-04-28T04:59:44.102Z,3.83
2023-04-28T05:01:16.268Z,4.35
2023-04-28T05:02:51.573Z,3.90
2023-04-28T05:04:24.235Z,4.82
2023-04-28T05:05:56.472Z,4.00
2023-04-28T05:07:28.575Z,4.80
2023-04-28T05:09:00.770Z,4.20
2023-04-28T05:10:33.207Z,4.32
2023-04-28T05:12:06.066Z,4.30
2023-04-28T05:13:38.167Z,4.15
2023-04-28T05:15:10.709Z,4.90
2023-04-28T05:16:42.988Z,4.63
2023-04-28T05:18:15.411Z,4.43
2023-04-28T05:19:47.464Z,4.57
2023-04-28T05:21:19.577Z,4.40
2023-04-28T05:22:51.804Z,3.85
2023-04-28T05:24:24.375Z,3.97
2023-04-28T05:25:56.602Z,4.13
2023-04-28T05:27:28.891Z,4.10
2023-04-28T05:29:01.011Z,3.80
2023-04-28T05:30:33.765Z,3.70
2023-04-28T05:32:06.458Z,3.95
2023-04-28T05:33:38.624Z,3.63
2023-04-28T05:35:11.003Z,3.83
2023-04-28T05:36:43.609Z,3.63
2023-04-28T05:38:15.775Z,3.85
2023-04-28T05:39:47.953Z,3.95
2023-04-28T05:41:20.137Z,3.80
2023-04-28T05:42:52.264Z,3.83
2023-04-28T05:44:24.621Z,3.80
2023-04-28T05:45:56.992Z,3.80
2023-04-28T05:47:30.743Z,3.75
2023-04-28T05:49:02.983Z,3.80
2023-04-28T05:50:36.058Z,3.97
2023-04-28T05:52:09.159Z,3.95
2023-04-28T05:53:41.521Z,3.60
2023-04-28T05:55:16.355Z,3.22
2023-04-28T05:56:48.521Z,3.42
2023-04-28T05:58:20.638Z,3.83
2023-04-28T05:59:52.834Z,3.45
2023-04-28T06:01:28.567Z,3.33
2023-04-28T06:03:01.216Z,3.70
2023-04-28T06:04:33.763Z,4.45
2023-04-28T06:06:09.781Z,3.40
2023-04-28T06:07:42.415Z,3.20
2023-04-28T06:09:14.747Z,3.20
2023-04-28T06:10:47.246Z,4.07
2023-04-28T06:12:19.903Z,4.03
2023-04-28T06:13:52.203Z,3.47
2023-04-28T06:15:24.489Z,3.10
2023-04-28T06:16:56.710Z,3.15
2023-04-28T06:18:32.980Z,3.22
2023-04-28T06:20:06.415Z,3.20
2023-04-28T06:23:10.746Z,3.20
2023-04-28T06:24:43.330Z,3.20
2023-04-28T06:26:17.987Z,4.20
2023-04-28T06:27:50.443Z,3.10
2023-04-28T06:29:24.450Z,2.97
2023-04-28T06:30:56.556Z,3.88
2023-04-28T06:32:28.911Z,3.45
2023-04-28T06:34:01.122Z,3.60
2023-04-28T06:35:36.109Z,3.30
2023-04-28T06:37:08.280Z,3.45
2023-04-28T06:38:43.260Z,3.38
2023-04-28T06:40:15.482Z,2.90
2023-04-28T06:41:47.880Z,3.20
2023-04-28T06:43:20.456Z,3.22
2023-04-28T06:44:52.630Z,3.42
2023-04-28T06:46:24.990Z,2.90
2023-04-28T06:47:57.337Z,2.90
2023-04-28T06:49:29.550Z,3.30
2023-04-28T06:51:01.775Z,3.15
2023-04-28T06:52:39.177Z,2.88
2023-04-28T06:54:11.998Z,2.97
2023-04-28T06:55:44.199Z,3.00
2023-04-28T06:57:16.316Z,3.28
2023-04-28T06:58:51.219Z,3.00
2023-04-28T07:01:57.701Z,3.10
2023-04-28T07:03:29.979Z,3.25
2023-04-28T07:05:02.168Z,2.88
2023-04-28T07:06:34.286Z,3.22
2023-04-28T07:08:06.897Z,3.30
2023-04-28T07:09:39.691Z,2.95
2023-04-28T07:11:12.031Z,2.88
2023-04-28T07:12:44.213Z,3.20
2023-04-28T07:14:16.653Z,3.50
2023-04-28T07:15:48.960Z,3.20
2023-04-28T07:17:21.044Z,3.63
2023-04-28T07:18:53.175Z,3.17
2023-04-28T07:20:25.423Z,3.40
2023-04-28T07:21:57.666Z,3.25
2023-04-28T07:23:29.878Z,3.50
2023-04-28T07:25:02.029Z,2.92
2023-04-28T07:26:34.348Z,3.22
2023-04-28T07:28:06.822Z,3.47
2023-04-28T07:29:38.973Z,2.90
2023-04-28T07:31:11.114Z,3.03
2023-04-28T07:32:44.354Z,3.15
2023-04-28T07:34:16.784Z,2.70
2023-04-28T07:35:49.895Z,3.60
2023-04-28T07:37:22.016Z,3.13
2023-04-28T07:38:54.265Z,3.17
2023-04-28T07:40:26.364Z,3.30
2023-04-28T07:41:59.466Z,3.42
2023-04-28T07:43:31.666Z,3.03
2023-04-28T07:45:06.035Z,3.28
2023-04-28T07:46:38.507Z,2.88
2023-04-28T07:48:10.767Z,3.17
2023-04-28T07:49:42.872Z,3.35
2023-04-28T07:51:14.996Z,3.45
2023-04-28T07:52:47.157Z,3.33
2023-04-28T07:54:19.698Z,3.15
2023-04-28T07:55:52.142Z,3.65
2023-04-28T07:57:24.286Z,3.38
2023-04-28T07:58:56.558Z,3.20
2023-04-28T08:00:28.893Z,3.05
2023-04-28T08:02:01.086Z,3.08
2023-04-28T08:03:33.636Z,2.92
2023-04-28T08:06:38.971Z,3.08
2023-04-28T08:09:47.578Z,3.42
2023-04-28T08:11:19.829Z,3.05
2023-04-28T08:12:53.234Z,3.13
2023-04-28T08:15:57.700Z,3.03
2023-04-28T08:17:29.833Z,3.20
2023-04-28T08:19:02.206Z,3.03
2023-04-28T08:20:34.458Z,3.20
2023-04-28T08:22:07.614Z,3.28
2023-04-28T08:23:39.785Z,3.38
2023-04-28T08:25:11.975Z,3.22
2023-04-28T08:26:44.483Z,2.85
2023-04-28T08:28:16.957Z,2.70
2023-04-28T08:29:49.025Z,2.85
2023-04-28T08:31:21.177Z,3.13
2023-04-28T08:32:53.544Z,3.45
2023-04-28T08:34:25.717Z,2.95
2023-04-28T08:35:57.913Z,3.15
2023-04-28T08:37:30.178Z,3.38
2023-04-28T08:39:04.566Z,2.97
2023-04-28T08:40:37.877Z,3.00
2023-04-28T08:42:10.203Z,3.10
2023-04-28T08:43:43.653Z,3.42
2023-04-28T08:45:16.191Z,3.20
2023-04-28T08:46:50.416Z,3.53
2023-04-28T08:48:23.125Z,3.35
2023-04-28T08:49:56.490Z,3.40
2023-04-28T08:53:07.666Z,2.97
2023-04-28T08:54:43.520Z,2.95
2023-04-28T08:56:17.273Z,3.35
2023-04-28T08:57:52.656Z,3.15
2023-04-28T08:59:25.164Z,3.33
2023-04-28T09:00:57.342Z,3.10
2023-04-28T09:02:29.547Z,3.08
2023-04-28T09:05:34.881Z,3.42
2023-04-28T09:07:13.530Z,4.93
2023-04-28T09:08:45.739Z,3.25
2023-04-28T09:10:25.128Z,3.13
2023-04-28T09:12:05.286Z,3.17
2023-04-28T09:13:38.050Z,3.00
2023-04-28T09:15:10.798Z,3.00
2023-04-28T09:16:42.952Z,3.03
2023-04-28T09:18:16.011Z,3.60
2023-04-28T09:19:48.411Z,3.33
2023-04-28T09:21:20.670Z,3.75
2023-04-28T09:22:54.390Z,3.15
2023-04-28T09:24:37.224Z,3.05
2023-04-28T09:26:09.375Z,3.53
2023-04-28T09:27:41.577Z,3.05
2023-04-28T09:29:14.318Z,2.97
2023-04-28T09:30:46.477Z,3.35
2023-04-28T09:32:21.297Z,3.15
2023-04-28T09:34:00.589Z,3.13
2023-04-28T09:35:43.395Z,3.13
2023-04-28T09:37:23.215Z,3.75
2023-04-28T09:38:58.501Z,3.67
2023-04-28T09:40:30.780Z,3.10
2023-04-28T09:42:04.116Z,3.47
2023-04-28T09:43:36.527Z,4.30
2023-04-28T09:45:16.396Z,3.58
2023-04-28T09:46:49.010Z,3.20
2023-04-28T09:48:31.759Z,2.97
2023-04-28T09:50:09.004Z,3.22
2023-04-28T09:51:41.549Z,3.40
2023-04-28T09:53:13.923Z,3.42
2023-04-28T09:54:46.287Z,3.50
2023-04-28T09:56:21.385Z,3.30
2023-04-28T09:57:55.227Z,3.65
2023-04-28T09:59:28.219Z,3.03
2023-04-28T10:01:01.490Z,3.28
2023-04-28T10:04:12.606Z,2.92
2023-04-28T10:05:45.727Z,3.28
2023-04-28T10:07:20.225Z,3.50
2023-04-28T10:08:52.580Z,3.15
2023-04-28T10:10:25.623Z,3.47
2023-04-28T10:11:57.859Z,3.72
2023-04-28T10:13:30.429Z,3.25
2023-04-28T10:15:02.658Z,2.90
2023-04-28T10:16:35.173Z,3.72
2023-04-28T10:18:08.154Z,2.92
2023-04-28T10:19:42.068Z,3.08
2023-04-28T10:21:18.958Z,2.97
2023-04-28T10:23:25.324Z,3.50
2023-04-28T10:25:12.490Z,3.22
2023-04-28T10:27:03.765Z,3.20
2023-04-28T10:28:36.050Z,3.35
2023-04-28T10:32:22.297Z,3.20
2023-04-28T10:33:55.165Z,3.22
2023-04-28T10:35:37.955Z,2.95
2023-04-28T10:37:10.165Z,3.40
2023-04-28T10:39:14.680Z,3.08
2023-04-28T10:40:47.960Z,3.35
2023-04-28T10:44:31.523Z,2.85
2023-04-28T10:46:06.661Z,3.35
2023-04-28T10:48:06.666Z,3.85
2023-04-28T10:49:57.957Z,3.85
2023-04-28T10:51:30.724Z,3.60
2023-04-28T10:53:02.917Z,3.75
2023-04-28T10:54:35.093Z,3.10
2023-04-28T10:56:07.591Z,3.17
2023-04-28T10:57:39.741Z,3.60
2023-04-28T10:59:30.653Z,3.45
2023-04-28T11:01:21.128Z,3.30
2023-04-28T11:02:53.753Z,3.40
2023-04-28T11:04:26.377Z,3.63
2023-04-28T11:06:27.784Z,3.28
2023-04-28T11:08:25.991Z,3.53
2023-04-28T11:09:58.252Z,3.17
2023-04-28T11:11:31.728Z,3.10
2023-04-28T11:13:26.434Z,3.75
2023-04-28T11:15:12.430Z,3.15
2023-04-28T11:16:55.179Z,3.08
2023-04-28T11:18:29.101Z,3.10
2023-04-28T11:20:02.714Z,2.85
2023-04-28T11:21:34.918Z,2.85
2023-04-28T11:23:08.499Z,3.03
2023-04-28T11:24:40.674Z,3.50
2023-04-28T11:26:15.823Z,3.28
2023-04-28T11:27:50.944Z,3.22
2023-04-28T11:29:36.767Z,2.67
2023-04-28T11:31:19.776Z,3.25
2023-04-28T11:32:52.186Z,3.17
2023-04-28T11:34:25.492Z,3.00
2023-04-28T11:35:57.559Z,3.03
2023-04-28T11:37:29.692Z,3.15
2023-04-28T11:39:05.430Z,2.80
2023-04-28T11:40:37.633Z,2.80
2023-04-28T11:42:10.841Z,2.95
2023-04-28T11:43:47.391Z,2.50
2023-04-28T11:45:20.102Z,2.90
2023-04-28T11:46:57.634Z,2.90
2023-04-28T11:48:29.714Z,3.00
2023-04-28T11:50:02.410Z,3.00
2023-04-28T11:51:37.308Z,2.95
2023-04-28T11:53:09.535Z,3.13
2023-04-28T11:54:44.632Z,2.53
2023-04-28T11:56:16.752Z,2.65
2023-04-28T11:57:49.007Z,2.60
2023-04-28T11:59:29.686Z,3.45
2023-04-28T12:01:11.861Z,2.80
2023-04-28T12:02:44.273Z,2.55
2023-04-28T12:04:38.317Z,3.00
2023-04-28T12:06:10.609Z,2.95
2023-04-28T12:07:46.065Z,2.90
2023-04-28T12:09:21.829Z,3.00
2023-04-28T12:11:14.302Z,3.13
2023-04-28T12:12:52.505Z,3.47
2023-04-28T12:14:26.047Z,2.90
2023-04-28T12:16:03.122Z,2.70
2023-04-28T12:17:40.487Z,2.90
2023-04-28T12:19:13.264Z,2.78
2023-04-28T12:20:45.537Z,2.60
2023-04-28T12:22:18.311Z,2.55
2023-04-28T12:23:50.986Z,2.90
2023-04-28T12:25:23.073Z,2.72
2023-04-28T12:26:55.561Z,2.95
2023-04-28T12:28:41.376Z,2.33
2023-04-28T12:30:23.253Z,2.70
2023-04-28T12:31:55.553Z,2.90
2023-04-28T12:33:29.390Z,2.40
2023-04-28T12:35:01.453Z,2.72
2023-04-28T12:36:33.605Z,2.72
2023-04-28T12:38:05.715Z,3.38
2023-04-28T12:39:39.765Z,2.63
2023-04-28T12:41:12.210Z,2.50
2023-04-28T12:42:44.492Z,3.33
2023-04-28T12:44:16.663Z,3.13
2023-04-28T12:45:49.536Z,2.63
2023-04-28T12:47:21.674Z,2.80
2023-04-28T12:48:54.212Z,2.47
2023-04-28T12:50:28.368Z,2.58
2023-04-28T12:52:00.514Z,2.50
2023-04-28T12:53:32.795Z,2.90
2023-04-28T12:55:05.465Z,2.55
2023-04-28T12:56:37.647Z,2.55
2023-04-28T12:58:09.765Z,2.30
2023-04-28T12:59:42.424Z,2.88
2023-04-28T13:01:16.410Z,2.70
2023-04-28T13:02:48.662Z,2.70
2023-04-28T13:04:21.167Z,2.70
2023-04-28T13:05:53.452Z,2.88
2023-04-28T13:07:25.588Z,2.83
2023-04-28T13:08:57.679Z,3.15
2023-04-28T13:10:30.294Z,2.95
2023-04-28T13:12:07.288Z,2.85
2023-04-28T13:13:39.480Z,2.72
2023-04-28T13:15:12.283Z,4.43
2023-04-28T13:16:44.478Z,2.97
2023-04-28T13:18:16.674Z,3.20
2023-04-28T13:19:49.253Z,2.85
2023-04-28T13:21:21.318Z,3.05
2023-04-28T13:22:53.466Z,2.60
2023-04-28T13:24:25.517Z,2.75
2023-04-28T13:25:57.600Z,2.70
2023-04-28T13:27:31.051Z,3.10
2023-04-28T13:29:04.456Z,3.03
2023-04-28T13:32:09.062Z,3.35
2023-04-28T13:33:41.545Z,3.15
2023-04-28T13:35:13.898Z,2.97
2023-04-28T13:36:46.193Z,2.90
2023-04-28T13:38:19.411Z,2.80
2023-04-28T13:39:51.628Z,3.80
2023-04-28T13:41:23.764Z,2.97
2023-04-28T13:42:58.381Z,2.80
2023-04-28T13:44:30.596Z,3.17
2023-04-28T13:47:34.911Z,3.00
2023-04-28T13:49:07.176Z,2.90
2023-04-28T13:50:39.659Z,2.83
2023-04-28T13:52:12.015Z,3.05
2023-04-28T13:53:44.288Z,2.97
2023-04-28T13:55:16.681Z,2.60
2023-04-28T13:56:49.137Z,2.80
2023-04-28T13:58:21.286Z,2.70
2023-04-28T13:59:53.657Z,3.08
2023-04-28T14:01:25.879Z,2.65
2023-04-28T14:02:58.255Z,2.70
2023-04-28T14:04:30.894Z,2.85
2023-04-28T14:06:03.478Z,2.50
2023-04-28T14:07:35.830Z,2.53
2023-04-28T14:09:08.500Z,2.65
2023-04-28T14:10:40.652Z,2.70
2023-04-28T14:12:14.253Z,2.50
2023-04-28T14:13:46.417Z,2.60
2023-04-28T14:15:18.538Z,2.83
2023-04-28T14:16:50.794Z,3.38
2023-04-28T14:18:23.000Z,3.15
2023-04-28T14:19:55.171Z,2.50
2023-04-28T14:21:27.297Z,3.10
2023-04-28T14:22:59.958Z,2.83
2023-04-28T14:24:32.321Z,2.72
2023-04-28T14:26:04.704Z,2.88
2023-04-28T14:27:36.974Z,2.75
2023-04-28T14:29:09.785Z,2.90
2023-04-28T14:30:42.160Z,2.50
2023-04-28T14:32:16.796Z,3.47
2023-04-28T14:33:48.904Z,2.72
2023-04-28T14:35:21.962Z,2.83
2023-04-28T14:36:54.055Z,2.70
2023-04-28T14:38:26.276Z,2.78
2023-04-28T14:39:58.720Z,2.83
2023-04-28T14:41:30.934Z,2.93
2023-04-28T14:43:03.070Z,2.67
2023-04-28T14:44:35.528Z,2.78
2023-04-28T14:46:08.430Z,2.78
2023-04-28T14:47:41.753Z,2.42
2023-04-28T14:50:46.560Z,2.85
2023-04-28T14:52:18.781Z,2.88
2023-04-28T14:53:51.338Z,2.70
2023-04-28T14:55:23.563Z,2.97
2023-04-28T14:56:55.677Z,2.58
2023-04-28T14:58:27.966Z,2.70
2023-04-28T15:00:00.310Z,2.97
2023-04-28T15:01:32.392Z,2.75
2023-04-28T15:03:04.817Z,2.58
2023-04-28T15:04:37.202Z,2.90
2023-04-28T15:06:09.474Z,2.55
2023-04-28T15:07:41.556Z,2.67
2023-04-28T15:09:14.001Z,2.90
2023-04-28T15:10:46.296Z,2.93
2023-04-28T15:12:18.478Z,2.67
2023-04-28T15:13:50.591Z,2.67
2023-04-28T15:16:55.509Z,2.42
2023-04-28T15:18:28.506Z,3.17
2023-04-28T15:20:00.761Z,2.70
2023-04-28T15:21:33.241Z,3.00
2023-04-28T15:23:05.360Z,2.87
2023-04-28T15:24:37.416Z,2.78
2023-04-28T15:26:11.267Z,2.97
2023-04-28T15:27:43.980Z,2.95
2023-04-28T15:29:16.592Z,2.92
2023-04-28T15:30:48.857Z,2.70
2023-04-28T15:32:20.983Z,2.75
2023-04-28T15:33:53.320Z,2.83
2023-04-28T15:35:25.444Z,2.63
2023-04-28T15:36:57.609Z,3.10
2023-04-28T15:38:31.815Z,2.70
2023-04-28T15:40:07.638Z,3.00
2023-04-28T15:41:39.820Z,3.08
2023-04-28T15:43:13.718Z,3.00
2023-04-28T15:44:45.974Z,2.85
2023-04-28T15:46:18.241Z,2.92
2023-04-28T15:47:51.337Z,2.40
2023-04-28T15:49:23.532Z,2.70
2023-04-28T15:50:56.262Z,2.92
2023-04-28T15:52:28.456Z,2.97
2023-04-28T15:54:00.916Z,2.70
2023-04-28T15:55:33.176Z,2.83
2023-04-28T15:57:05.985Z,2.85
2023-04-28T15:58:38.280Z,2.42
2023-04-28T16:00:11.842Z,2.55
2023-04-28T16:01:44.387Z,2.78
2023-04-28T16:03:17.325Z,2.75
2023-04-28T16:04:49.701Z,2.83
2023-04-28T16:06:22.028Z,3.10
2023-04-28T16:07:55.441Z,2.90
2023-04-28T16:10:59.608Z,2.53
2023-04-28T16:12:31.805Z,2.70
2023-04-28T16:14:04.653Z,2.88
2023-04-28T16:15:36.831Z,2.60
2023-04-28T16:17:09.176Z,2.70
2023-04-28T16:18:41.418Z,2.70
2023-04-28T16:20:13.862Z,3.08
2023-04-28T16:21:46.049Z,2.47
2023-04-28T16:23:19.125Z,2.70
2023-04-28T16:26:22.997Z,2.53
2023-04-28T16:27:55.250Z,2.63
2023-04-28T16:29:27.390Z,2.70
2023-04-28T16:30:59.874Z,2.70
2023-04-28T16:32:33.897Z,3.30
2023-04-28T16:34:06.042Z,3.15
2023-04-28T16:35:38.302Z,3.60
2023-04-28T16:37:12.077Z,3.15
2023-04-28T16:38:46.162Z,3.20
2023-04-28T16:40:18.786Z,2.90
2023-04-28T16:41:51.047Z,3.47
2023-04-28T16:43:23.286Z,3.40
2023-04-28T16:44:55.504Z,3.55
2023-04-28T16:46:27.914Z,3.17
2023-04-28T16:48:00.159Z,2.90
2023-04-28T16:49:32.464Z,3.50
2023-04-28T16:51:08.582Z,3.00
2023-04-28T16:52:41.086Z,5.28
2023-04-28T16:54:13.300Z,5.93
2023-04-28T16:55:45.477Z,4.25
2023-04-28T16:57:17.570Z,3.65
2023-04-28T16:58:49.714Z,3.55
2023-04-28T17:00:22.214Z,3.47
2023-04-28T17:01:54.368Z,7.03
2023-04-28T17:03:26.935Z,4.03
2023-04-28T17:05:01.869Z,6.85
2023-04-28T17:06:34.254Z,7.00
2023-04-28T17:08:06.308Z,4.82
2023-04-28T17:09:39.031Z,4.50
2023-04-28T17:11:11.673Z,6.95
2023-04-28T17:12:45.980Z,9.07
2023-04-28T17:14:18.885Z,10.20
2023-04-28T17:15:58.188Z,6.32
2023-04-28T17:17:30.382Z,5.85
2023-04-28T17:19:03.184Z,8.57
2023-04-28T17:20:35.745Z,9.25
2023-04-28T17:22:07.824Z,37.97
2023-04-28T17:23:40.492Z,9.60
2023-04-28T17:25:13.143Z,11.88
2023-04-28T17:26:45.519Z,12.88
2023-04-28T17:28:17.664Z,9.75
2023-04-28T17:29:50.103Z,8.57
2023-04-28T17:31:23.328Z,10.68
2023-04-28T17:32:55.740Z,9.38
2023-04-28T17:34:27.877Z,11.93
2023-04-28T17:36:00.003Z,14.85
2023-04-28T17:37:35.304Z,12.73
2023-04-28T17:39:07.754Z,14.35
2023-04-28T17:40:39.913Z,15.52
2023-04-28T17:42:12.100Z,12.00
2023-04-28T17:43:44.309Z,10.85
2023-04-28T17:45:16.505Z,8.05
2023-04-28T17:46:48.860Z,9.63
2023-04-28T17:48:21.428Z,9.77
2023-04-28T17:49:53.649Z,10.10
2023-04-28T17:51:26.024Z,10.38
2023-04-28T17:52:58.467Z,10.07
2023-04-28T17:54:32.437Z,7.97
2023-04-28T17:56:04.661Z,6.47
2023-04-28T17:57:37.112Z,4.55
2023-04-28T17:59:09.340Z,4.47
2023-04-28T18:00:41.449Z,4.22
2023-04-28T18:02:13.975Z,4.55
2023-04-28T18:03:46.426Z,4.23
2023-04-28T18:05:18.669Z,5.28
2023-04-28T18:06:50.900Z,5.70
2023-04-28T18:08:24.177Z,7.95
2023-04-28T18:09:57.742Z,6.55
2023-04-28T18:11:30.177Z,4.50
2023-04-28T18:13:02.933Z,7.25
2023-04-28T18:14:35.168Z,6.70
2023-04-28T18:16:11.164Z,4.30
2023-04-28T18:17:46.334Z,4.40
2023-04-28T18:19:18.425Z,6.40
2023-04-28T18:20:50.781Z,5.28
2023-04-28T18:22:23.141Z,4.28
2023-04-28T18:23:55.283Z,8.85
2023-04-28T18:25:27.950Z,5.18
2023-04-28T18:27:01.150Z,7.28
2023-04-28T18:28:34.498Z,6.07
2023-04-28T18:30:08.445Z,4.93
2023-04-28T18:31:41.185Z,6.13
2023-04-28T18:33:13.617Z,9.52
2023-04-28T18:34:45.871Z,19.70
2023-04-28T18:36:18.046Z,6.55
2023-04-28T18:37:50.136Z,7.00
2023-04-28T18:39:23.370Z,5.72
2023-04-28T18:40:55.596Z,4.00
2023-04-28T19:30:50.306Z,4.00
2023-04-28T19:32:22.526Z,4.25
2023-04-28T19:33:54.835Z,4.13
2023-04-28T19:35:27.592Z,4.10
2023-04-28T19:37:00.223Z,4.00
2023-04-28T19:38:32.699Z,4.33
2023-04-28T19:40:05.403Z,4.32
2023-04-28T19:41:37.519Z,4.25
2023-04-28T19:43:10.160Z,3.67
2023-04-28T19:44:42.419Z,3.60
2023-04-28T19:46:15.622Z,3.80
2023-04-28T19:47:47.883Z,3.60
2023-04-28T19:49:20.018Z,4.28
2023-04-28T19:50:52.457Z,4.80
2023-04-28T19:52:24.878Z,4.63
2023-04-28T19:53:57.225Z,4.32
2023-04-28T19:55:29.759Z,4.00
2023-04-28T19:57:02.218Z,4.87
2023-04-28T19:58:34.363Z,4.78
2023-04-28T20:00:08.549Z,4.68
2023-04-28T20:01:42.824Z,4.85
2023-04-28T20:03:15.334Z,4.93
2023-04-28T20:04:49.310Z,4.53
2023-04-28T20:06:21.539Z,4.30
2023-04-28T20:07:56.249Z,4.55
2023-04-28T20:09:28.750Z,4.43
2023-04-28T20:11:00.867Z,4.50
2023-04-28T20:12:33.591Z,3.80
2023-04-28T20:14:05.819Z,4.10
2023-04-28T20:15:38.197Z,4.25
2023-04-28T20:17:10.684Z,3.90
2023-04-28T20:18:42.916Z,3.97
2023-04-28T20:20:15.100Z,3.95
2023-04-28T20:21:47.293Z,4.07
2023-04-28T20:23:19.469Z,4.13
2023-04-28T20:24:51.610Z,4.32
2023-04-28T20:26:23.749Z,4.57
2023-04-28T20:27:55.999Z,4.30
2023-04-28T20:29:31.573Z,4.32
2023-04-28T20:31:03.827Z,4.22
2023-04-28T20:32:37.068Z,4.10
2023-04-28T20:34:09.227Z,8.30
2023-04-28T20:35:41.382Z,9.60
2023-04-28T20:37:14.400Z,11.00
2023-04-28T20:38:46.544Z,10.38
2023-04-28T20:40:18.753Z,11.32
2023-04-28T20:41:51.019Z,13.68
2023-04-28T20:43:24.438Z,13.90
2023-04-28T20:46:28.635Z,11.98
2023-04-28T20:48:00.978Z,9.98
2023-04-28T20:49:35.892Z,7.97
2023-04-28T20:51:08.096Z,5.85
2023-04-28T20:52:40.350Z,5.45
2023-04-28T20:54:13.327Z,5.82
2023-04-28T20:55:45.458Z,4.68
2023-04-28T20:57:17.614Z,5.93
2023-04-28T20:58:49.821Z,8.18
2023-04-28T21:00:22.097Z,7.85
2023-04-28T21:01:55.029Z,7.85
2023-04-28T21:03:27.333Z,7.10
2023-04-28T21:04:59.368Z,7.78
2023-04-28T21:06:31.430Z,7.43
2023-04-28T21:08:03.808Z,7.38
2023-04-28T21:09:38.005Z,8.25
2023-04-28T21:11:17.847Z,8.77
2023-04-28T21:12:49.945Z,8.32
2023-04-28T21:14:22.625Z,7.70
2023-04-28T21:15:54.657Z,7.18
2023-04-28T21:17:26.840Z,7.28
2023-04-28T21:19:01.327Z,7.50
2023-04-28T21:20:33.641Z,7.82
2023-04-28T21:22:05.799Z,8.68
2023-04-28T21:23:39.836Z,7.65
2023-04-28T21:25:12.047Z,8.27
2023-04-28T21:26:44.181Z,7.05
2023-04-28T21:28:16.690Z,5.80
2023-04-28T21:29:49.157Z,6.32
2023-04-28T21:31:22.172Z,5.37
2023-04-28T21:32:54.493Z,5.50
2023-04-28T21:34:26.816Z,6.05
2023-04-28T21:35:59.023Z,5.35
2023-04-28T21:37:31.950Z,5.35
2023-04-28T21:39:04.409Z,5.15
2023-04-28T21:40:39.411Z,5.18
2023-04-28T21:42:11.820Z,5.57
2023-04-28T21:43:44.002Z,5.80
2023-04-28T21:45:16.149Z,5.22
2023-04-28T21:46:48.647Z,5.45
2023-04-28T21:48:21.718Z,5.13
2023-04-28T21:49:53.887Z,5.38
2023-04-28T21:51:26.002Z,5.57
2023-04-28T21:52:59.670Z,5.25
2023-04-28T21:54:31.793Z,5.43
2023-04-28T21:56:06.018Z,5.43
2023-04-28T21:57:38.166Z,5.07
2023-04-28T21:59:10.350Z,4.53
2023-04-28T22:00:49.279Z,4.68